createdAt,value
2022-12-26T00:00:00.269Z,6.1
2022-12-26T00:01:05.165Z,6.1
2022-12-26T00:02:00.292Z,6.1
2022-12-26T00:03:00.403Z,6.1
2022-12-26T00:04:00.839Z,6.2
2022-12-26T00:05:00.444Z,6.2
2022-12-26T00:06:00.284Z,6.2
2022-12-26T00:07:00.314Z,6.1
2022-12-26T00:08:00.227Z,6.1
2022-12-26T00:09:02.932Z,6.1
2022-12-26T00:10:00.231Z,6.1
2022-12-26T00:11:00.215Z,6.1
2022-12-26T00:12:00.447Z,6.1
2022-12-26T00:13:38.717Z,6.2
2022-12-26T00:14:06.150Z,6.2
2022-12-26T00:15:00.218Z,6.2
2022-12-26T00:16:06.315Z,6.2
2022-12-26T00:17:00.225Z,6.2
2022-12-26T00:18:00.236Z,6.1
2022-12-26T00:19:00.473Z,6.1
2022-12-26T00:20:00.261Z,6.2
2022-12-26T00:21:00.279Z,6.2
2022-12-26T00:22:00.302Z,6.1
2022-12-26T00:23:00.417Z,6.1
2022-12-26T00:24:01.121Z,6.1
2022-12-26T00:25:00.230Z,6.1
2022-12-26T00:26:02.214Z,6.1
2022-12-26T00:27:00.253Z,6.0
2022-12-26T00:28:00.719Z,6.0
2022-12-26T00:29:00.550Z,6.0
2022-12-26T00:30:00.230Z,6.0
2022-12-26T00:31:10.308Z,6.0
2022-12-26T00:32:00.421Z,6.0
2022-12-26T00:33:00.232Z,6.0
2022-12-26T00:34:01.341Z,6.1
2022-12-26T00:35:00.278Z,6.1
2022-12-26T00:36:02.775Z,6.1
2022-12-26T00:37:00.233Z,6.1
2022-12-26T00:38:00.240Z,6.1
2022-12-26T00:39:01.656Z,6.1
2022-12-26T00:40:00.292Z,6.1
2022-12-26T00:41:00.830Z,6.1
2022-12-26T00:42:00.289Z,6.1
2022-12-26T00:43:00.231Z,6.2
2022-12-26T00:44:00.233Z,6.1
2022-12-26T00:45:00.228Z,6.2
2022-12-26T00:46:00.740Z,6.2
2022-12-26T00:47:00.320Z,6.2
2022-12-26T00:48:00.449Z,6.2
2022-12-26T00:49:00.333Z,6.2
2022-12-26T00:50:14.819Z,6.2
2022-12-26T00:51:00.809Z,6.2
2022-12-26T00:52:00.226Z,6.2
2022-12-26T00:53:00.339Z,6.2
2022-12-26T00:54:00.223Z,6.2
2022-12-26T00:55:00.198Z,6.2
2022-12-26T00:56:00.258Z,6.2
2022-12-26T00:57:00.185Z,6.2
2022-12-26T00:58:00.335Z,6.2
2022-12-26T00:59:00.218Z,6.2
2022-12-26T01:00:00.214Z,6.2
2022-12-26T01:01:13.428Z,6.2
2022-12-26T01:02:00.483Z,6.2
2022-12-26T01:03:00.476Z,6.2
2022-12-26T01:04:00.202Z,6.2
2022-12-26T01:05:00.200Z,6.2
2022-12-26T01:06:02.277Z,6.2
2022-12-26T01:07:00.234Z,6.2
2022-12-26T01:08:21.526Z,6.2
2022-12-26T01:09:00.191Z,6.2
2022-12-26T01:10:00.167Z,6.2
2022-12-26T01:11:03.281Z,6.2
2022-12-26T01:12:00.185Z,6.2
2022-12-26T01:13:00.217Z,6.2
2022-12-26T01:14:00.188Z,6.2
2022-12-26T01:15:00.529Z,6.2
2022-12-26T01:16:00.673Z,6.3
2022-12-26T01:17:00.310Z,6.3
2022-12-26T01:18:00.646Z,6.3
2022-12-26T01:19:00.446Z,6.3
2022-12-26T01:20:00.439Z,6.3
2022-12-26T01:21:02.927Z,6.3
2022-12-26T01:22:00.184Z,6.3
2022-12-26T01:23:00.228Z,6.3
2022-12-26T01:24:00.596Z,6.3
2022-12-26T01:25:00.193Z,6.3
2022-12-26T01:26:16.939Z,6.3
2022-12-26T01:27:00.183Z,6.4
2022-12-26T01:28:00.194Z,6.4
2022-12-26T01:29:00.290Z,6.4
2022-12-26T01:30:00.258Z,6.4
2022-12-26T01:31:02.499Z,6.4
2022-12-26T01:32:00.324Z,6.4
2022-12-26T01:33:00.209Z,6.3
2022-12-26T01:34:00.232Z,6.3
2022-12-26T01:35:00.260Z,6.3
2022-12-26T01:36:00.219Z,6.3
2022-12-26T01:37:00.231Z,6.3
2022-12-26T01:38:00.225Z,6.3
2022-12-26T01:39:00.250Z,6.3
2022-12-26T01:40:00.375Z,6.3
2022-12-26T01:41:00.429Z,6.3
2022-12-26T01:42:00.234Z,6.3
2022-12-26T01:43:00.242Z,6.3
2022-12-26T01:44:03.547Z,6.3
2022-12-26T01:45:15.714Z,6.2
2022-12-26T01:46:00.314Z,6.2
2022-12-26T01:47:00.292Z,6.3
2022-12-26T01:48:04.994Z,6.2
2022-12-26T01:49:07.547Z,6.2
2022-12-26T01:50:00.682Z,6.2
2022-12-26T01:51:04.534Z,6.2
2022-12-26T01:52:05.315Z,6.2
2022-12-26T01:53:07.935Z,6.2
2022-12-26T01:54:39.125Z,6.2
2022-12-26T01:55:00.444Z,6.2
2022-12-26T01:56:07.428Z,6.2
2022-12-26T01:57:09.457Z,6.2
2022-12-26T01:58:06.121Z,6.2
2022-12-26T01:59:09.999Z,6.2
2022-12-26T02:00:01.498Z,6.2
2022-12-26T02:01:02.568Z,6.2
2022-12-26T02:02:01.034Z,6.2
2022-12-26T02:03:00.376Z,6.2
2022-12-26T02:04:03.986Z,6.2
2022-12-26T02:05:00.251Z,6.3
2022-12-26T02:06:00.753Z,6.3
2022-12-26T02:07:03.155Z,6.3
2022-12-26T02:08:04.349Z,6.3
2022-12-26T02:09:00.658Z,6.3
2022-12-26T02:10:00.714Z,6.3
2022-12-26T02:11:20.125Z,6.3
2022-12-26T02:12:34.833Z,6.3
2022-12-26T02:13:00.506Z,6.3
2022-12-26T02:14:01.157Z,6.2
2022-12-26T02:15:02.450Z,6.2
2022-12-26T02:16:01.052Z,6.3
2022-12-26T02:17:00.534Z,6.3
2022-12-26T02:18:00.289Z,6.3
2022-12-26T02:19:00.961Z,6.3
2022-12-26T02:20:19.599Z,6.3
2022-12-26T02:21:06.533Z,6.3
2022-12-26T02:22:20.126Z,6.3
2022-12-26T02:23:10.649Z,6.3
2022-12-26T02:24:11.230Z,6.3
2022-12-26T02:25:17.720Z,6.3
2022-12-26T02:26:20.128Z,6.3
2022-12-26T02:27:13.431Z,6.3
2022-12-26T02:28:11.219Z,6.3
2022-12-26T02:29:12.856Z,6.3
2022-12-26T02:30:12.738Z,6.3
2022-12-26T02:31:15.370Z,6.3
2022-12-26T02:32:20.200Z,6.3
2022-12-26T02:33:13.468Z,6.3
2022-12-26T02:34:09.205Z,6.2
2022-12-26T02:35:18.798Z,6.2
2022-12-26T02:36:18.871Z,6.2
2022-12-26T02:37:17.587Z,6.2
2022-12-26T02:38:10.206Z,6.2
2022-12-26T02:39:45.183Z,6.2
2022-12-26T02:40:13.406Z,6.3
2022-12-26T02:41:13.191Z,6.3
2022-12-26T02:42:10.166Z,6.3
2022-12-26T02:43:19.024Z,6.3
2022-12-26T02:44:20.160Z,6.3
2022-12-26T02:45:13.199Z,6.3
2022-12-26T02:46:12.072Z,6.3
2022-12-26T02:47:12.541Z,6.3
2022-12-26T02:48:11.383Z,6.3
2022-12-26T02:49:16.186Z,6.3
2022-12-26T02:50:16.655Z,6.3
2022-12-26T02:51:11.252Z,6.3
2022-12-26T02:52:13.367Z,6.3
2022-12-26T02:53:10.199Z,6.3
2022-12-26T02:54:14.271Z,6.3
2022-12-26T02:55:08.333Z,6.3
2022-12-26T02:56:07.892Z,6.3
2022-12-26T02:57:03.897Z,6.3
2022-12-26T02:58:06.236Z,6.3
2022-12-26T02:59:12.003Z,6.3
2022-12-26T03:00:06.573Z,6.2
2022-12-26T03:01:05.838Z,6.2
2022-12-26T03:02:03.245Z,6.2
2022-12-26T03:03:04.732Z,6.2
2022-12-26T03:04:03.999Z,6.2
2022-12-26T03:05:01.828Z,6.2
2022-12-26T03:06:06.515Z,6.2
2022-12-26T03:07:03.874Z,6.2
2022-12-26T03:08:03.509Z,6.1
2022-12-26T03:09:04.791Z,6.1
2022-12-26T03:10:05.027Z,6.1
2022-12-26T03:11:00.339Z,6.1
2022-12-26T03:12:06.846Z,6.1
2022-12-26T03:13:05.332Z,6.1
2022-12-26T03:14:09.784Z,6.1
2022-12-26T03:15:02.467Z,6.1
2022-12-26T03:16:06.210Z,6.1
2022-12-26T03:17:04.732Z,6.2
2022-12-26T03:18:04.586Z,6.3
2022-12-26T03:19:07.136Z,6.4
2022-12-26T03:20:10.465Z,6.4
2022-12-26T03:21:01.272Z,6.5
2022-12-26T03:22:02.714Z,6.5
2022-12-26T03:23:05.202Z,6.6
2022-12-26T03:24:00.263Z,6.6
2022-12-26T03:25:07.081Z,6.6
2022-12-26T03:26:08.153Z,6.7
2022-12-26T03:27:00.334Z,6.7
2022-12-26T03:28:00.360Z,6.7
2022-12-26T03:29:01.321Z,6.7
2022-12-26T03:30:00.216Z,6.7
2022-12-26T03:31:04.676Z,6.7
2022-12-26T03:32:02.639Z,6.7
2022-12-26T03:33:00.301Z,6.7
2022-12-26T03:34:05.510Z,6.7
2022-12-26T03:35:00.427Z,6.7
2022-12-26T03:36:01.142Z,6.7
2022-12-26T03:37:17.717Z,6.7
2022-12-26T03:38:13.849Z,6.8
2022-12-26T03:39:16.545Z,6.7
2022-12-26T03:40:20.163Z,6.7
2022-12-26T03:41:08.162Z,6.7
2022-12-26T03:42:08.801Z,6.7
2022-12-26T03:43:08.870Z,6.7
2022-12-26T03:44:19.184Z,6.6
2022-12-26T03:45:10.854Z,6.6
2022-12-26T03:46:20.167Z,6.6
2022-12-26T03:47:12.853Z,6.6
2022-12-26T03:48:10.513Z,6.6
2022-12-26T03:49:10.172Z,6.6
2022-12-26T03:50:06.998Z,6.6
2022-12-26T03:51:09.067Z,6.6
2022-12-26T03:52:06.197Z,6.6
2022-12-26T03:53:11.564Z,6.6
2022-12-26T03:54:11.524Z,6.6
2022-12-26T03:55:09.587Z,6.6
2022-12-26T03:56:07.057Z,6.6
2022-12-26T03:57:08.363Z,6.6
2022-12-26T03:58:10.535Z,6.6
2022-12-26T03:59:06.329Z,6.6
2022-12-26T04:00:05.472Z,6.6
2022-12-26T04:01:06.050Z,6.6
2022-12-26T04:02:05.751Z,6.6
2022-12-26T04:03:09.082Z,6.6
2022-12-26T04:04:03.047Z,6.6
2022-12-26T04:05:03.946Z,6.6
2022-12-26T04:06:02.901Z,6.7
2022-12-26T04:07:13.470Z,6.7
2022-12-26T04:08:04.007Z,6.7
2022-12-26T04:09:07.671Z,6.6
2022-12-26T04:10:07.788Z,6.6
2022-12-26T04:11:01.806Z,6.6
2022-12-26T04:12:01.473Z,6.6
2022-12-26T04:13:05.069Z,6.6
2022-12-26T04:14:07.236Z,6.7
2022-12-26T04:15:04.599Z,6.7
2022-12-26T04:16:13.330Z,6.7
2022-12-26T04:17:20.140Z,6.7
2022-12-26T04:18:08.013Z,6.7
2022-12-26T04:19:15.649Z,6.7
2022-12-26T04:20:07.222Z,6.8
2022-12-26T04:21:05.199Z,6.8
2022-12-26T04:22:13.835Z,6.8
2022-12-26T04:23:04.073Z,6.8
2022-12-26T04:24:08.475Z,6.9
2022-12-26T04:25:09.114Z,6.9
2022-12-26T04:26:13.598Z,6.9
2022-12-26T04:27:03.887Z,6.9
2022-12-26T04:28:00.523Z,7.0
2022-12-26T04:29:00.524Z,7.0
2022-12-26T04:30:00.318Z,7.0
2022-12-26T04:31:15.730Z,7.0
2022-12-26T04:32:12.079Z,7.0
2022-12-26T04:33:10.008Z,7.0
2022-12-26T04:34:04.414Z,7.0
2022-12-26T04:35:09.185Z,7.0
2022-12-26T04:36:06.861Z,7.1
2022-12-26T04:37:03.832Z,7.1
2022-12-26T04:38:02.491Z,7.1
2022-12-26T04:39:05.393Z,7.2
2022-12-26T04:40:01.676Z,7.3
2022-12-26T04:41:01.529Z,7.3
2022-12-26T04:42:01.396Z,7.3
2022-12-26T04:43:01.648Z,7.4
2022-12-26T04:44:04.106Z,7.4
2022-12-26T04:45:02.927Z,7.6
2022-12-26T04:46:01.248Z,7.7
2022-12-26T04:47:00.307Z,7.8
2022-12-26T04:48:00.309Z,7.8
2022-12-26T04:49:03.818Z,7.9
2022-12-26T04:50:05.498Z,7.9
2022-12-26T04:51:00.226Z,7.9
2022-12-26T04:52:03.781Z,8.0
2022-12-26T04:53:00.689Z,8.1
2022-12-26T04:54:00.582Z,8.1
2022-12-26T04:55:00.240Z,8.1
2022-12-26T04:56:00.232Z,8.1
2022-12-26T04:57:00.310Z,8.1
2022-12-26T04:58:00.334Z,8.1
2022-12-26T04:59:00.322Z,8.1
2022-12-26T05:00:00.201Z,8.2
2022-12-26T05:01:00.244Z,8.1
2022-12-26T05:02:00.418Z,8.1
2022-12-26T05:03:00.435Z,8.1
2022-12-26T05:04:00.495Z,8.1
2022-12-26T05:05:00.217Z,8.1
2022-12-26T05:06:00.251Z,8.2
2022-12-26T05:07:01.683Z,8.2
2022-12-26T05:08:00.378Z,8.2
2022-12-26T05:09:00.252Z,8.2
2022-12-26T05:10:00.862Z,8.1
2022-12-26T05:11:00.238Z,8.1
2022-12-26T05:12:02.177Z,8.2
2022-12-26T05:13:00.230Z,8.2
2022-12-26T05:14:00.288Z,8.1
2022-12-26T05:15:00.229Z,8.1
2022-12-26T05:16:00.441Z,8.1
2022-12-26T05:17:00.964Z,8.1
2022-12-26T05:18:00.199Z,8.1
2022-12-26T05:19:00.262Z,8.1
2022-12-26T05:20:00.332Z,8.1
2022-12-26T05:21:01.386Z,8.1
2022-12-26T05:22:03.265Z,8.2
2022-12-26T05:23:01.626Z,8.3
2022-12-26T05:24:00.284Z,8.3
2022-12-26T05:25:00.293Z,8.3
2022-12-26T05:26:00.832Z,8.2
2022-12-26T05:27:00.352Z,8.2
2022-12-26T05:28:00.253Z,8.2
2022-12-26T05:29:00.256Z,8.2
2022-12-26T05:30:00.278Z,8.3
2022-12-26T05:31:01.239Z,8.3
2022-12-26T05:32:00.330Z,8.3
2022-12-26T05:33:00.249Z,8.3
2022-12-26T05:34:00.415Z,8.3
2022-12-26T05:35:00.248Z,8.3
2022-12-26T05:36:00.318Z,8.3
2022-12-26T05:37:00.375Z,8.3
2022-12-26T05:38:00.708Z,8.3
2022-12-26T05:39:00.451Z,8.3
2022-12-26T05:40:00.545Z,8.3
2022-12-26T05:41:00.416Z,8.3
2022-12-26T05:42:00.270Z,8.4
2022-12-26T05:43:00.307Z,8.4
2022-12-26T05:44:00.457Z,8.4
2022-12-26T05:45:00.320Z,8.4
2022-12-26T05:46:00.311Z,8.4
2022-12-26T05:47:00.453Z,8.5
2022-12-26T05:48:00.981Z,8.5
2022-12-26T05:49:00.458Z,8.4
2022-12-26T05:50:00.247Z,8.4
2022-12-26T05:51:01.799Z,8.4
2022-12-26T05:52:00.326Z,8.4
2022-12-26T05:53:00.268Z,8.4
2022-12-26T05:54:01.153Z,8.4
2022-12-26T05:55:00.220Z,8.4
2022-12-26T05:56:05.049Z,8.4
2022-12-26T05:57:00.308Z,8.4
2022-12-26T05:58:00.538Z,8.4
2022-12-26T05:59:00.822Z,8.4
2022-12-26T06:00:00.349Z,8.4
2022-12-26T06:01:05.488Z,8.4
2022-12-26T06:02:00.601Z,8.4
2022-12-26T06:03:00.603Z,8.5
2022-12-26T06:04:00.443Z,8.5
2022-12-26T06:05:00.215Z,8.6
2022-12-26T06:06:00.511Z,8.6
2022-12-26T06:07:00.268Z,8.6
2022-12-26T06:08:00.227Z,8.6
2022-12-26T06:09:00.223Z,8.6
2022-12-26T06:10:00.557Z,8.6
2022-12-26T06:11:04.813Z,8.6
2022-12-26T06:12:00.435Z,8.6
2022-12-26T06:13:00.410Z,8.6
2022-12-26T06:14:00.354Z,8.6
2022-12-26T06:15:00.760Z,8.6
2022-12-26T06:16:10.310Z,8.7
2022-12-26T06:17:00.224Z,8.6
2022-12-26T06:18:00.245Z,8.6
2022-12-26T06:19:00.213Z,8.6
2022-12-26T06:20:00.343Z,8.7
2022-12-26T06:21:07.440Z,8.7
2022-12-26T06:22:00.267Z,8.7
2022-12-26T06:23:00.224Z,8.7
2022-12-26T06:24:00.260Z,8.8
2022-12-26T06:25:00.244Z,8.8
2022-12-26T06:26:00.840Z,8.8
2022-12-26T06:27:00.260Z,8.8
2022-12-26T06:28:00.245Z,8.8
2022-12-26T06:29:00.235Z,8.8
2022-12-26T06:30:00.286Z,8.8
2022-12-26T06:31:02.818Z,8.8
2022-12-26T06:32:00.440Z,8.8
2022-12-26T06:33:00.239Z,8.7
2022-12-26T06:34:00.491Z,8.7
2022-12-26T06:35:00.235Z,8.7
2022-12-26T06:36:04.153Z,8.7
2022-12-26T06:37:00.240Z,8.7
2022-12-26T06:38:00.212Z,8.7
2022-12-26T06:39:00.213Z,8.7
2022-12-26T06:40:00.264Z,8.7
2022-12-26T06:41:00.353Z,8.7
2022-12-26T06:42:00.334Z,8.6
2022-12-26T06:43:00.204Z,8.6
2022-12-26T06:44:00.285Z,8.6
2022-12-26T06:45:00.256Z,8.6
2022-12-26T06:46:02.086Z,8.6
2022-12-26T06:47:00.373Z,8.6
2022-12-26T06:48:01.112Z,8.6
2022-12-26T06:49:00.236Z,8.6
2022-12-26T06:50:00.228Z,8.6
2022-12-26T06:51:04.687Z,8.6
2022-12-26T06:52:00.240Z,8.6
2022-12-26T06:53:00.221Z,8.6
2022-12-26T06:54:01.549Z,8.6
2022-12-26T06:55:00.396Z,8.5
2022-12-26T06:56:10.063Z,8.5
2022-12-26T06:57:00.226Z,8.5
2022-12-26T06:58:00.213Z,8.5
2022-12-26T06:59:02.113Z,8.5
2022-12-26T07:00:00.229Z,8.5
2022-12-26T07:01:04.869Z,8.6
2022-12-26T07:02:00.471Z,8.6
2022-12-26T07:03:00.247Z,8.6
2022-12-26T07:04:01.459Z,8.6
2022-12-26T07:05:00.245Z,8.6
2022-12-26T07:06:05.796Z,8.5
2022-12-26T07:07:00.240Z,8.5
2022-12-26T07:08:00.275Z,8.5
2022-12-26T07:09:04.039Z,8.5
2022-12-26T07:10:00.221Z,8.5
2022-12-26T07:11:00.342Z,8.5
2022-12-26T07:12:00.335Z,8.5
2022-12-26T07:13:00.214Z,8.4
2022-12-26T07:14:00.590Z,8.4
2022-12-26T07:15:01.820Z,8.4
2022-12-26T07:16:00.311Z,8.4
2022-12-26T07:17:00.234Z,8.4
2022-12-26T07:18:00.231Z,8.4
2022-12-26T07:19:00.332Z,8.5
2022-12-26T07:20:00.280Z,8.4
2022-12-26T07:21:05.546Z,8.4
2022-12-26T07:22:00.233Z,8.4
2022-12-26T07:23:00.209Z,8.4
2022-12-26T07:24:00.276Z,8.4
2022-12-26T07:25:00.225Z,8.4
2022-12-26T07:26:00.451Z,8.5
2022-12-26T07:27:00.240Z,8.4
2022-12-26T07:28:00.221Z,8.4
2022-12-26T07:29:00.209Z,8.5
2022-12-26T07:30:00.260Z,8.4
2022-12-26T07:31:00.813Z,8.4
2022-12-26T07:32:00.374Z,8.4
2022-12-26T07:33:00.312Z,8.4
2022-12-26T07:34:00.253Z,8.4
2022-12-26T07:35:00.255Z,8.4
2022-12-26T07:36:01.584Z,8.4
2022-12-26T07:37:00.242Z,8.4
2022-12-26T07:38:00.226Z,8.4
2022-12-26T07:39:00.252Z,8.4
2022-12-26T07:40:00.254Z,8.4
2022-12-26T07:41:00.251Z,8.4
2022-12-26T07:42:00.454Z,8.4
2022-12-26T07:43:00.259Z,8.4
2022-12-26T07:44:00.344Z,8.4
2022-12-26T07:45:00.245Z,8.4
2022-12-26T07:46:00.267Z,8.4
2022-12-26T07:47:00.640Z,8.4
2022-12-26T07:48:00.453Z,8.4
2022-12-26T07:49:00.615Z,8.4
2022-12-26T07:50:00.269Z,8.4
2022-12-26T07:51:00.992Z,8.4
2022-12-26T07:52:00.267Z,8.5
2022-12-26T07:53:00.251Z,8.5
2022-12-26T07:54:02.200Z,8.5
2022-12-26T07:55:00.247Z,8.5
2022-12-26T07:56:00.486Z,8.5
2022-12-26T07:57:22.370Z,8.5
2022-12-26T07:58:00.209Z,8.5
2022-12-26T07:59:00.380Z,8.5
2022-12-26T08:00:00.315Z,8.5
2022-12-26T08:01:00.936Z,8.5
2022-12-26T08:02:00.389Z,8.6
2022-12-26T08:03:06.813Z,8.6
2022-12-26T08:04:00.398Z,8.6
2022-12-26T08:05:00.272Z,8.6
2022-12-26T08:06:00.474Z,8.6
2022-12-26T08:07:00.228Z,8.6
2022-12-26T08:08:00.227Z,8.6
2022-12-26T08:09:00.253Z,8.6
2022-12-26T08:10:00.254Z,8.6
2022-12-26T08:11:02.858Z,8.6
2022-12-26T08:12:00.241Z,8.6
2022-12-26T08:13:00.223Z,8.7
2022-12-26T08:14:00.674Z,8.7
2022-12-26T08:15:00.346Z,8.7
2022-12-26T08:16:04.841Z,8.7
2022-12-26T08:17:00.322Z,8.7
2022-12-26T08:18:00.213Z,8.7
2022-12-26T08:19:01.205Z,8.7
2022-12-26T08:20:00.263Z,8.7
2022-12-26T08:21:00.303Z,8.7
2022-12-26T08:22:00.253Z,8.7
2022-12-26T08:23:00.557Z,8.7
2022-12-26T08:24:00.584Z,8.7
2022-12-26T08:25:00.240Z,8.7
2022-12-26T08:26:10.735Z,8.8
2022-12-26T08:27:00.400Z,8.8
2022-12-26T08:28:00.217Z,8.8
2022-12-26T08:29:00.319Z,8.8
2022-12-26T08:30:00.392Z,8.8
2022-12-26T08:31:06.074Z,8.8
2022-12-26T08:32:00.248Z,8.8
2022-12-26T08:33:00.274Z,8.8
2022-12-26T08:34:00.290Z,8.8
2022-12-26T08:35:00.250Z,8.8
2022-12-26T08:36:03.244Z,8.7
2022-12-26T08:37:00.598Z,8.7
2022-12-26T08:38:00.210Z,8.8
2022-12-26T08:39:00.273Z,8.7
2022-12-26T08:40:00.238Z,8.7
2022-12-26T08:41:00.291Z,8.7
2022-12-26T08:42:00.228Z,8.7
2022-12-26T08:43:21.437Z,8.7
2022-12-26T08:44:27.908Z,8.8
2022-12-26T08:45:00.333Z,8.8
2022-12-26T08:46:03.491Z,8.8
2022-12-26T08:47:00.322Z,8.7
2022-12-26T08:48:00.221Z,8.7
2022-12-26T08:49:00.214Z,8.7
2022-12-26T08:50:00.255Z,8.7
2022-12-26T08:51:03.995Z,8.8
2022-12-26T08:52:00.271Z,8.8
2022-12-26T08:53:00.215Z,8.8
2022-12-26T08:54:00.384Z,8.7
2022-12-26T08:55:00.906Z,8.7
2022-12-26T08:56:02.255Z,8.7
2022-12-26T08:57:00.417Z,8.7
2022-12-26T08:58:00.266Z,8.7
2022-12-26T08:59:00.251Z,8.7
2022-12-26T09:00:00.259Z,8.7
2022-12-26T09:01:11.229Z,8.7
2022-12-26T09:02:00.388Z,8.8
2022-12-26T09:03:00.306Z,8.8
2022-12-26T09:04:02.330Z,8.8
2022-12-26T09:05:00.249Z,8.9
2022-12-26T09:06:05.589Z,8.8
2022-12-26T09:07:00.242Z,8.8
2022-12-26T09:08:00.214Z,8.8
2022-12-26T09:09:00.536Z,8.9
2022-12-26T09:10:00.240Z,8.9
2022-12-26T09:11:07.401Z,8.9
2022-12-26T09:12:00.213Z,9.0
2022-12-26T09:13:00.411Z,9.0
2022-12-26T09:14:02.098Z,9.0
2022-12-26T09:15:00.340Z,9.0
2022-12-26T09:16:10.795Z,9.1
2022-12-26T09:17:00.294Z,9.1
2022-12-26T09:18:00.222Z,9.1
2022-12-26T09:19:00.997Z,9.1
2022-12-26T09:20:00.225Z,9.1
2022-12-26T09:21:02.929Z,9.1
2022-12-26T09:22:00.230Z,9.1
2022-12-26T09:23:00.221Z,9.1
2022-12-26T09:24:03.625Z,9.1
2022-12-26T09:25:00.358Z,9.1
2022-12-26T09:26:04.641Z,9.1
2022-12-26T09:27:00.294Z,9.1
2022-12-26T09:28:00.211Z,9.1
2022-12-26T09:29:00.784Z,9.1
2022-12-26T09:30:00.250Z,9.1
2022-12-26T09:31:05.532Z,9.1
2022-12-26T09:32:00.232Z,9.1
2022-12-26T09:33:00.219Z,9.1
2022-12-26T09:34:02.981Z,9.1
2022-12-26T09:35:00.687Z,9.1
2022-12-26T09:36:08.295Z,9.2
2022-12-26T09:37:00.249Z,9.2
2022-12-26T09:38:00.226Z,9.2
2022-12-26T09:39:00.649Z,9.2
2022-12-26T09:40:00.271Z,9.2
2022-12-26T09:41:10.206Z,9.3
2022-12-26T09:42:18.971Z,9.3
2022-12-26T09:43:02.238Z,9.4
2022-12-26T09:44:01.373Z,9.4
2022-12-26T09:45:15.057Z,9.4
2022-12-26T09:46:04.222Z,9.4
2022-12-26T09:47:14.724Z,9.5
2022-12-26T09:48:14.615Z,9.5
2022-12-26T09:49:07.846Z,9.5
2022-12-26T09:50:03.539Z,9.5
2022-12-26T09:51:00.328Z,9.5
2022-12-26T09:52:07.738Z,9.6
2022-12-26T09:53:06.587Z,9.6
2022-12-26T09:54:03.866Z,9.6
2022-12-26T09:55:05.698Z,9.6
2022-12-26T09:56:04.489Z,9.7
2022-12-26T09:57:09.857Z,9.7
2022-12-26T09:58:09.661Z,9.8
2022-12-26T09:59:13.121Z,9.9
2022-12-26T10:00:02.624Z,9.9
2022-12-26T10:01:09.072Z,9.9
2022-12-26T10:02:00.377Z,10.0
2022-12-26T10:03:00.521Z,10.0
2022-12-26T10:04:07.220Z,10.0
2022-12-26T10:05:00.492Z,10.1
2022-12-26T10:06:05.069Z,10.1
2022-12-26T10:07:16.200Z,10.1
2022-12-26T10:08:16.115Z,10.2
2022-12-26T10:09:18.188Z,10.2
2022-12-26T10:10:03.499Z,10.2
2022-12-26T10:11:02.935Z,10.2
2022-12-26T10:12:20.131Z,10.2
2022-12-26T10:13:12.364Z,10.3
2022-12-26T10:14:08.316Z,10.3
2022-12-26T10:15:13.801Z,10.4
2022-12-26T10:16:10.216Z,10.4
2022-12-26T10:17:10.243Z,10.4
2022-12-26T10:18:15.712Z,10.4
2022-12-26T10:19:13.982Z,10.4
2022-12-26T10:20:10.198Z,10.4
2022-12-26T10:21:19.444Z,10.5
2022-12-26T10:22:10.167Z,10.5
2022-12-26T10:23:17.713Z,10.5
2022-12-26T10:24:07.755Z,10.5
2022-12-26T10:25:01.932Z,10.5
2022-12-26T10:26:13.481Z,10.5
2022-12-26T10:27:04.270Z,10.6
2022-12-26T10:28:02.719Z,10.6
2022-12-26T10:29:07.567Z,10.6
2022-12-26T10:30:03.714Z,10.6
2022-12-26T10:31:07.215Z,10.7
2022-12-26T10:32:07.099Z,10.7
2022-12-26T10:33:05.968Z,10.7
2022-12-26T10:34:07.544Z,10.7
2022-12-26T10:35:07.728Z,10.6
2022-12-26T10:36:01.467Z,10.7
2022-12-26T10:37:04.513Z,10.7
2022-12-26T10:38:10.387Z,10.7
2022-12-26T10:39:03.903Z,10.7
2022-12-26T10:40:11.203Z,10.7
2022-12-26T10:41:08.148Z,10.7
2022-12-26T10:42:17.762Z,10.7
2022-12-26T10:43:16.864Z,10.7
2022-12-26T10:44:00.578Z,10.7
2022-12-26T10:45:01.189Z,10.6
2022-12-26T10:46:10.193Z,10.6
2022-12-26T10:47:09.989Z,10.6
2022-12-26T10:48:00.663Z,10.6
2022-12-26T10:49:00.398Z,10.6
2022-12-26T10:50:00.274Z,10.5
2022-12-26T10:51:00.304Z,10.5
2022-12-26T10:52:02.445Z,10.5
2022-12-26T10:53:03.481Z,10.5
2022-12-26T10:54:00.252Z,10.4
2022-12-26T10:55:28.055Z,10.4
2022-12-26T10:56:00.815Z,10.4
2022-12-26T10:57:00.973Z,10.4
2022-12-26T10:58:19.027Z,10.3
2022-12-26T10:59:03.627Z,10.3
2022-12-26T11:00:03.511Z,10.3
2022-12-26T11:01:20.275Z,10.3
2022-12-26T11:02:15.678Z,10.2
2022-12-26T11:03:02.214Z,10.2
2022-12-26T11:04:04.213Z,10.2
2022-12-26T11:05:21.542Z,10.2
2022-12-26T11:06:08.819Z,10.1
2022-12-26T11:07:08.815Z,10.1
2022-12-26T11:08:13.436Z,10.1
2022-12-26T11:09:00.301Z,10.1
2022-12-26T11:10:01.417Z,10.1
2022-12-26T11:11:05.765Z,10.1
2022-12-26T11:12:01.239Z,10.1
2022-12-26T11:13:03.791Z,10.1
2022-12-26T11:14:02.821Z,10.1
2022-12-26T11:15:03.702Z,10.1
2022-12-26T11:16:00.747Z,10.1
2022-12-26T11:17:03.883Z,10.1
2022-12-26T11:18:17.497Z,10.1
2022-12-26T11:19:00.386Z,10.1
2022-12-26T11:20:16.868Z,10.1
2022-12-26T11:21:12.914Z,10.1
2022-12-26T11:22:20.157Z,10.1
2022-12-26T11:23:20.141Z,10.1
2022-12-26T11:24:07.747Z,10.2
2022-12-26T11:25:10.590Z,10.2
2022-12-26T11:26:00.543Z,10.2
2022-12-26T11:27:19.128Z,10.2
2022-12-26T11:28:19.031Z,10.2
2022-12-26T11:29:12.729Z,10.3
2022-12-26T11:30:11.284Z,10.3
2022-12-26T11:31:04.731Z,10.3
2022-12-26T11:32:02.218Z,10.4
2022-12-26T11:33:11.659Z,10.4
2022-12-26T11:34:07.543Z,10.4
2022-12-26T11:35:00.456Z,10.4
2022-12-26T11:36:10.180Z,10.4
2022-12-26T11:37:00.474Z,10.4
2022-12-26T11:38:01.072Z,10.5
2022-12-26T11:39:06.631Z,10.5
2022-12-26T11:40:00.473Z,10.5
2022-12-26T11:41:08.696Z,10.5
2022-12-26T11:42:08.200Z,10.5
2022-12-26T11:43:04.124Z,10.5
2022-12-26T11:44:10.240Z,10.5
2022-12-26T11:45:10.561Z,10.5
2022-12-26T11:46:00.364Z,10.6
2022-12-26T11:47:09.633Z,10.6
2022-12-26T11:48:00.309Z,10.6
2022-12-26T11:49:01.246Z,10.6
2022-12-26T11:50:06.753Z,10.7
2022-12-26T11:51:00.289Z,10.7
2022-12-26T11:52:03.148Z,10.7
2022-12-26T11:53:00.295Z,10.8
2022-12-26T11:54:17.403Z,10.8
2022-12-26T11:55:00.373Z,10.8
2022-12-26T11:56:02.673Z,10.8
2022-12-26T11:57:11.199Z,10.8
2022-12-26T11:58:07.757Z,10.8
2022-12-26T11:59:16.702Z,10.8
2022-12-26T12:00:15.727Z,10.8
2022-12-26T12:01:00.238Z,10.8
2022-12-26T12:02:20.257Z,10.7
2022-12-26T12:03:02.789Z,10.7
2022-12-26T12:04:00.256Z,10.7
2022-12-26T12:05:12.029Z,10.8
2022-12-26T12:06:17.488Z,10.8
2022-12-26T12:07:13.828Z,10.8
2022-12-26T12:08:08.563Z,10.8
2022-12-26T12:09:12.843Z,10.8
2022-12-26T12:10:04.556Z,10.7
2022-12-26T12:11:08.321Z,10.7
2022-12-26T12:12:11.217Z,10.7
2022-12-26T12:13:10.352Z,10.7
2022-12-26T12:14:10.443Z,10.7
2022-12-26T12:15:05.681Z,10.7
2022-12-26T12:16:20.157Z,10.7
2022-12-26T12:17:02.274Z,10.7
2022-12-26T12:18:11.210Z,10.7
2022-12-26T12:19:15.222Z,10.7
2022-12-26T12:20:10.174Z,10.7
2022-12-26T12:21:13.445Z,10.7
2022-12-26T12:22:20.144Z,10.7
2022-12-26T12:23:16.283Z,10.7
2022-12-26T12:24:11.211Z,10.7
2022-12-26T12:25:07.052Z,10.7
2022-12-26T12:26:08.518Z,10.7
2022-12-26T12:27:10.790Z,10.7
2022-12-26T12:28:11.212Z,10.7
2022-12-26T12:29:17.189Z,10.7
2022-12-26T12:30:15.813Z,10.7
2022-12-26T12:31:10.189Z,10.7
2022-12-26T12:32:07.981Z,10.7
2022-12-26T12:33:20.156Z,10.8
2022-12-26T12:34:13.432Z,10.7
2022-12-26T12:35:17.828Z,10.7
2022-12-26T12:36:08.291Z,10.8
2022-12-26T12:37:20.180Z,10.8
2022-12-26T12:38:19.075Z,10.8
2022-12-26T12:39:06.253Z,10.8
2022-12-26T12:40:20.153Z,10.8
2022-12-26T12:41:20.139Z,10.8
2022-12-26T12:42:11.474Z,10.8
2022-12-26T12:43:09.965Z,10.8
2022-12-26T12:44:10.160Z,10.8
2022-12-26T12:45:20.140Z,10.8
2022-12-26T12:46:08.974Z,10.8
2022-12-26T12:47:13.037Z,10.7
2022-12-26T12:48:14.078Z,10.7
2022-12-26T12:49:20.127Z,10.7
2022-12-26T12:50:20.130Z,10.7
2022-12-26T12:51:20.158Z,10.7
2022-12-26T12:52:12.309Z,10.7
2022-12-26T12:53:13.460Z,10.7
2022-12-26T12:54:01.255Z,10.7
2022-12-26T12:55:18.599Z,10.7
2022-12-26T12:56:14.917Z,10.7
2022-12-26T12:57:20.171Z,10.8
2022-12-26T12:58:15.016Z,10.7
2022-12-26T12:59:11.192Z,10.7
2022-12-26T13:00:13.362Z,10.7
2022-12-26T13:01:05.811Z,10.7
2022-12-26T13:02:10.323Z,10.7
2022-12-26T13:03:06.920Z,10.7
2022-12-26T13:04:04.358Z,10.7
2022-12-26T13:05:15.917Z,10.7
2022-12-26T13:06:05.512Z,10.7
2022-12-26T13:07:08.130Z,10.7
2022-12-26T13:08:05.529Z,10.7
2022-12-26T13:09:14.303Z,10.7
2022-12-26T13:10:03.088Z,10.6
2022-12-26T13:11:05.672Z,10.6
2022-12-26T13:12:03.857Z,10.6
2022-12-26T13:13:14.503Z,10.6
2022-12-26T13:14:05.373Z,10.7
2022-12-26T13:15:07.708Z,10.7
2022-12-26T13:16:07.055Z,10.7
2022-12-26T13:17:07.535Z,10.7
2022-12-26T13:18:07.050Z,10.7
2022-12-26T13:19:05.054Z,10.7
2022-12-26T13:20:12.029Z,10.7
2022-12-26T13:21:07.546Z,10.7
2022-12-26T13:22:04.808Z,10.6
2022-12-26T13:23:04.877Z,10.7
2022-12-26T13:24:16.727Z,10.6
2022-12-26T13:25:01.313Z,10.7
2022-12-26T13:26:08.320Z,10.7
2022-12-26T13:27:13.411Z,10.7
2022-12-26T13:28:05.051Z,10.7
2022-12-26T13:29:11.151Z,10.7
2022-12-26T13:30:05.711Z,10.7
2022-12-26T13:31:00.203Z,10.7
2022-12-26T13:32:01.642Z,10.7
2022-12-26T13:33:00.683Z,10.7
2022-12-26T13:34:02.430Z,10.7
2022-12-26T13:35:01.502Z,10.7
2022-12-26T13:36:03.707Z,10.7
2022-12-26T13:37:00.314Z,10.7
2022-12-26T13:38:00.211Z,10.7